sensor_id;sensor_type;location;lat;lon;timestamp;temperature;humidity
5870;DHT22;2961;47.702;9.410;2022-09-09T00:00:19;13.00;99.90
5870;DHT22;2961;47.702;9.410;2022-09-09T00:02:54;12.90;99.90
5870;DHT22;2961;47.702;9.410;2022-09-09T00:05:29;12.90;99.90
5870;DHT22;2961;47.702;9.410;2022-09-09T00:07:59;12.90;99.90
5870;DHT22;2961;47.702;9.410;2022-09-09T00:10:34;12.90;99.90
5870;DHT22;2961;47.702;9.410;2022-09-09T00:13:13;12.90;99.90
5870;DHT22;2961;47.702;9.410;2022-09-09T00:15:48;13.00;99.90
5870;DHT22;2961;47.702;9.410;2022-09-09T00:18:25;13.00;99.90
5870;DHT22;2961;47.702;9.410;2022-09-09T00:20:58;12.90;99.90
5870;DHT22;2961;47.702;9.410;2022-09-09T00:23:30;12.90;99.90
5870;DHT22;2961;47.702;9.410;2022-09-09T00:26:08;12.90;99.90
5870;DHT22;2961;47.702;9.410;2022-09-09T00:28:39;12.80;99.90
5870;DHT22;2961;47.702;9.410;2022-09-09T00:31:13;12.80;99.90
5870;DHT22;2961;47.702;9.410;2022-09-09T00:33:40;12.90;99.90
5870;DHT22;2961;47.702;9.410;2022-09-09T00:36:13;12.90;99.90
5870;DHT22;2961;47.702;9.410;2022-09-09T00:38:43;12.90;99.90
5870;DHT22;2961;47.702;9.410;2022-09-09T00:41:20;12.90;99.90
5870;DHT22;2961;47.702;9.410;2022-09-09T00:43:56;12.90;99.90
5870;DHT22;2961;47.702;9.410;2022-09-09T00:49:23;12.70;99.90
5870;DHT22;2961;47.702;9.410;2022-09-09T00:51:59;12.70;99.90
5870;DHT22;2961;47.702;9.410;2022-09-09T00:54:44;12.70;99.90
5870;DHT22;2961;47.702;9.410;2022-09-09T00:57:23;12.60;99.90
5870;DHT22;2961;47.702;9.410;2022-09-09T00:59:58;12.60;99.90
5870;DHT22;2961;47.702;9.410;2022-09-09T01:02:28;12.50;99.90
5870;DHT22;2961;47.702;9.410;2022-09-09T01:05:04;12.40;99.90
5870;DHT22;2961;47.702;9.410;2022-09-09T01:07:32;12.40;99.90
5870;DHT22;2961;47.702;9.410;2022-09-09T01:10:00;12.40;99.90
5870;DHT22;2961;47.702;9.410;2022-09-09T01:12:37;12.40;99.90
5870;DHT22;2961;47.702;9.410;2022-09-09T01:15:09;12.40;99.90
5870;DHT22;2961;47.702;9.410;2022-09-09T01:17:52;12.40;99.90
5870;DHT22;2961;47.702;9.410;2022-09-09T01:20:24;12.30;99.90
5870;DHT22;2961;47.702;9.410;2022-09-09T01:23:11;12.20;99.90
5870;DHT22;2961;47.702;9.410;2022-09-09T01:26:09;12.30;99.90
5870;DHT22;2961;47.702;9.410;2022-09-09T01:28:39;12.30;99.90
5870;DHT22;2961;47.702;9.410;2022-09-09T01:31:09;12.30;99.90
5870;DHT22;2961;47.702;9.410;2022-09-09T01:33:37;12.30;99.90
5870;DHT22;2961;47.702;9.410;2022-09-09T01:36:08;12.30;99.90
5870;DHT22;2961;47.702;9.410;2022-09-09T01:38:36;12.20;99.90
5870;DHT22;2961;47.702;9.410;2022-09-09T01:41:04;12.10;99.90
5870;DHT22;2961;47.702;9.410;2022-09-09T01:43:31;12.10;99.90
5870;DHT22;2961;47.702;9.410;2022-09-09T01:46:00;12.10;99.90
5870;DHT22;2961;47.702;9.410;2022-09-09T01:48:28;12.20;99.90
5870;DHT22;2961;47.702;9.410;2022-09-09T01:50:55;12.20;99.90
5870;DHT22;2961;47.702;9.410;2022-09-09T01:53:22;12.20;99.90
5870;DHT22;2961;47.702;9.410;2022-09-09T01:56:02;12.20;99.90
5870;DHT22;2961;47.702;9.410;2022-09-09T01:58:42;12.10;99.90
5870;DHT22;2961;47.702;9.410;2022-09-09T02:01:17;12.00;99.90
5870;DHT22;2961;47.702;9.410;2022-09-09T02:03:52;12.00;99.90
5870;DHT22;2961;47.702;9.410;2022-09-09T02:06:27;12.10;99.90
5870;DHT22;2961;47.702;9.410;2022-09-09T02:08:56;12.10;99.90
5870;DHT22;2961;47.702;9.410;2022-09-09T02:11:27;12.10;99.90
5870;DHT22;2961;47.702;9.410;2022-09-09T02:14:00;12.10;99.90
5870;DHT22;2961;47.702;9.410;2022-09-09T02:16:30;12.00;99.90
5870;DHT22;2961;47.702;9.410;2022-09-09T02:19:04;12.00;99.90
5870;DHT22;2961;47.702;9.410;2022-09-09T02:21:33;11.90;99.90
5870;DHT22;2961;47.702;9.410;2022-09-09T02:24:04;11.90;99.90
5870;DHT22;2961;47.702;9.410;2022-09-09T02:26:34;11.90;99.90
5870;DHT22;2961;47.702;9.410;2022-09-09T02:29:06;11.80;99.90
5870;DHT22;2961;47.702;9.410;2022-09-09T02:31:34;11.80;99.90
5870;DHT22;2961;47.702;9.410;2022-09-09T02:34:05;11.80;99.90
5870;DHT22;2961;47.702;9.410;2022-09-09T02:36:33;11.80;99.90
5870;DHT22;2961;47.702;9.410;2022-09-09T02:39:03;11.80;99.90
5870;DHT22;2961;47.702;9.410;2022-09-09T02:41:33;11.90;99.90
5870;DHT22;2961;47.702;9.410;2022-09-09T02:44:01;12.00;99.90
5870;DHT22;2961;47.702;9.410;2022-09-09T02:46:36;12.10;99.90
5870;DHT22;2961;47.702;9.410;2022-09-09T02:49:11;12.20;99.90
5870;DHT22;2961;47.702;9.410;2022-09-09T02:51:51;12.20;99.90
5870;DHT22;2961;47.702;9.410;2022-09-09T02:54:27;12.30;99.90
5870;DHT22;2961;47.702;9.410;2022-09-09T02:57:06;12.20;99.90
5870;DHT22;2961;47.702;9.410;2022-09-09T02:59:34;12.30;99.90
5870;DHT22;2961;47.702;9.410;2022-09-09T03:02:03;12.20;99.90
5870;DHT22;2961;47.702;9.410;2022-09-09T03:04:30;12.20;99.90
5870;DHT22;2961;47.702;9.410;2022-09-09T03:06:57;12.20;99.90
5870;DHT22;2961;47.702;9.410;2022-09-09T03:09:24;12.20;99.90
5870;DHT22;2961;47.702;9.410;2022-09-09T03:11:52;12.30;99.90
5870;DHT22;2961;47.702;9.410;2022-09-09T03:14:20;12.30;99.90
5870;DHT22;2961;47.702;9.410;2022-09-09T03:16:50;12.30;99.90
5870;DHT22;2961;47.702;9.410;2022-09-09T03:19:18;12.40;99.90
5870;DHT22;2961;47.702;9.410;2022-09-09T03:21:45;12.40;99.90
5870;DHT22;2961;47.702;9.410;2022-09-09T03:24:12;12.30;99.90
5870;DHT22;2961;47.702;9.410;2022-09-09T03:26:39;12.30;99.90
5870;DHT22;2961;47.702;9.410;2022-09-09T03:29:06;12.40;99.90
5870;DHT22;2961;47.702;9.410;2022-09-09T03:31:33;12.40;99.90
5870;DHT22;2961;47.702;9.410;2022-09-09T03:34:01;12.30;99.90
5870;DHT22;2961;47.702;9.410;2022-09-09T03:36:30;12.30;99.90
5870;DHT22;2961;47.702;9.410;2022-09-09T03:38:57;12.40;99.90
5870;DHT22;2961;47.702;9.410;2022-09-09T03:41:25;12.50;99.90
5870;DHT22;2961;47.702;9.410;2022-09-09T03:43:52;12.50;99.90
5870;DHT22;2961;47.702;9.410;2022-09-09T03:46:20;12.50;99.90
5870;DHT22;2961;47.702;9.410;2022-09-09T03:48:47;12.50;99.90
5870;DHT22;2961;47.702;9.410;2022-09-09T03:51:14;12.60;99.90
5870;DHT22;2961;47.702;9.410;2022-09-09T03:53:42;12.60;99.90
5870;DHT22;2961;47.702;9.410;2022-09-09T03:56:09;12.60;99.90
5870;DHT22;2961;47.702;9.410;2022-09-09T03:58:37;12.70;99.90
5870;DHT22;2961;47.702;9.410;2022-09-09T04:01:05;12.80;99.90
5870;DHT22;2961;47.702;9.410;2022-09-09T04:03:33;12.80;99.90
5870;DHT22;2961;47.702;9.410;2022-09-09T04:06:01;12.90;99.90
5870;DHT22;2961;47.702;9.410;2022-09-09T04:08:29;12.90;99.90
5870;DHT22;2961;47.702;9.410;2022-09-09T04:10:58;13.00;99.90
5870;DHT22;2961;47.702;9.410;2022-09-09T04:13:27;13.10;99.90
5870;DHT22;2961;47.702;9.410;2022-09-09T04:15:55;13.10;99.90
5870;DHT22;2961;47.702;9.410;2022-09-09T04:18:23;13.20;99.90
5870;DHT22;2961;47.702;9.410;2022-09-09T04:20:52;13.30;99.90
5870;DHT22;2961;47.702;9.410;2022-09-09T04:23:19;13.30;99.90
5870;DHT22;2961;47.702;9.410;2022-09-09T04:25:46;13.30;99.90
5870;DHT22;2961;47.702;9.410;2022-09-09T04:28:15;13.40;99.90
5870;DHT22;2961;47.702;9.410;2022-09-09T04:30:43;13.40;99.90
5870;DHT22;2961;47.702;9.410;2022-09-09T04:33:11;13.40;99.90
5870;DHT22;2961;47.702;9.410;2022-09-09T04:35:56;13.30;99.90
5870;DHT22;2961;47.702;9.410;2022-09-09T04:38:23;13.30;99.90
5870;DHT22;2961;47.702;9.410;2022-09-09T04:41:04;13.30;99.90
5870;DHT22;2961;47.702;9.410;2022-09-09T04:43:33;13.30;99.90
5870;DHT22;2961;47.702;9.410;2022-09-09T04:46:00;13.40;99.90
5870;DHT22;2961;47.702;9.410;2022-09-09T04:48:26;13.50;99.90
5870;DHT22;2961;47.702;9.410;2022-09-09T04:50:55;13.40;99.90
5870;DHT22;2961;47.702;9.410;2022-09-09T04:53:21;13.40;99.90
5870;DHT22;2961;47.702;9.410;2022-09-09T04:55:48;13.40;99.90
5870;DHT22;2961;47.702;9.410;2022-09-09T04:58:15;13.40;99.90
5870;DHT22;2961;47.702;9.410;2022-09-09T05:00:44;13.40;99.90
5870;DHT22;2961;47.702;9.410;2022-09-09T05:03:10;13.50;99.90
5870;DHT22;2961;47.702;9.410;2022-09-09T05:05:38;13.50;99.90
5870;DHT22;2961;47.702;9.410;2022-09-09T05:08:06;13.50;99.90
5870;DHT22;2961;47.702;9.410;2022-09-09T05:10:36;13.50;99.90
5870;DHT22;2961;47.702;9.410;2022-09-09T05:13:03;13.60;99.90
5870;DHT22;2961;47.702;9.410;2022-09-09T05:15:30;13.60;99.90
5870;DHT22;2961;47.702;9.410;2022-09-09T05:17:59;13.70;99.90
5870;DHT22;2961;47.702;9.410;2022-09-09T05:20:26;13.70;99.90
5870;DHT22;2961;47.702;9.410;2022-09-09T05:22:53;13.80;99.90
5870;DHT22;2961;47.702;9.410;2022-09-09T05:25:20;13.80;99.90
5870;DHT22;2961;47.702;9.410;2022-09-09T05:27:47;13.80;99.90
5870;DHT22;2961;47.702;9.410;2022-09-09T05:30:15;13.80;99.90
5870;DHT22;2961;47.702;9.410;2022-09-09T05:32:42;13.80;99.90
5870;DHT22;2961;47.702;9.410;2022-09-09T05:35:10;13.80;99.90
5870;DHT22;2961;47.702;9.410;2022-09-09T05:37:36;13.90;99.90
5870;DHT22;2961;47.702;9.410;2022-09-09T05:40:04;13.80;99.90
5870;DHT22;2961;47.702;9.410;2022-09-09T05:42:31;13.90;99.90
5870;DHT22;2961;47.702;9.410;2022-09-09T05:44:58;14.00;99.90
5870;DHT22;2961;47.702;9.410;2022-09-09T05:47:25;13.90;99.90
5870;DHT22;2961;47.702;9.410;2022-09-09T05:49:53;13.90;99.90
5870;DHT22;2961;47.702;9.410;2022-09-09T05:52:22;13.80;99.90
5870;DHT22;2961;47.702;9.410;2022-09-09T05:54:49;14.00;99.90
5870;DHT22;2961;47.702;9.410;2022-09-09T05:57:15;14.00;99.90
5870;DHT22;2961;47.702;9.410;2022-09-09T05:59:42;14.00;99.90
5870;DHT22;2961;47.702;9.410;2022-09-09T06:02:09;14.00;99.90
5870;DHT22;2961;47.702;9.410;2022-09-09T06:04:36;14.00;99.90
5870;DHT22;2961;47.702;9.410;2022-09-09T06:07:05;14.00;99.90
5870;DHT22;2961;47.702;9.410;2022-09-09T06:09:34;14.10;99.90
5870;DHT22;2961;47.702;9.410;2022-09-09T06:12:00;14.10;99.90
5870;DHT22;2961;47.702;9.410;2022-09-09T06:14:27;14.10;99.90
5870;DHT22;2961;47.702;9.410;2022-09-09T06:16:54;14.10;99.90
5870;DHT22;2961;47.702;9.410;2022-09-09T06:19:22;14.20;99.90
5870;DHT22;2961;47.702;9.410;2022-09-09T06:21:49;14.20;99.90
5870;DHT22;2961;47.702;9.410;2022-09-09T06:24:16;14.20;99.90
5870;DHT22;2961;47.702;9.410;2022-09-09T06:26:46;14.30;99.90
5870;DHT22;2961;47.702;9.410;2022-09-09T06:29:12;14.30;99.90
5870;DHT22;2961;47.702;9.410;2022-09-09T06:31:39;14.20;99.90
5870;DHT22;2961;47.702;9.410;2022-09-09T06:34:08;14.30;99.90
5870;DHT22;2961;47.702;9.410;2022-09-09T06:36:36;14.30;99.90
5870;DHT22;2961;47.702;9.410;2022-09-09T06:39:03;14.40;99.90
5870;DHT22;2961;47.702;9.410;2022-09-09T06:41:31;14.40;99.90
5870;DHT22;2961;47.702;9.410;2022-09-09T06:44:00;14.50;99.90
5870;DHT22;2961;47.702;9.410;2022-09-09T06:46:28;14.50;99.90
5870;DHT22;2961;47.702;9.410;2022-09-09T06:48:56;14.60;99.90
5870;DHT22;2961;47.702;9.410;2022-09-09T06:51:28;14.60;99.90
5870;DHT22;2961;47.702;9.410;2022-09-09T06:53:56;14.70;99.90
5870;DHT22;2961;47.702;9.410;2022-09-09T06:56:25;14.70;99.90
5870;DHT22;2961;47.702;9.410;2022-09-09T06:58:54;14.70;99.90
5870;DHT22;2961;47.702;9.410;2022-09-09T07:01:24;14.80;99.90
5870;DHT22;2961;47.702;9.410;2022-09-09T07:03:53;14.90;99.90
5870;DHT22;2961;47.702;9.410;2022-09-09T07:06:21;14.90;99.90
5870;DHT22;2961;47.702;9.410;2022-09-09T07:08:49;14.90;99.90
5870;DHT22;2961;47.702;9.410;2022-09-09T07:11:17;15.00;99.90
5870;DHT22;2961;47.702;9.410;2022-09-09T07:13:44;14.90;99.90
5870;DHT22;2961;47.702;9.410;2022-09-09T07:16:12;15.00;99.90
5870;DHT22;2961;47.702;9.410;2022-09-09T07:18:41;15.00;99.90
5870;DHT22;2961;47.702;9.410;2022-09-09T07:21:10;15.00;99.90
5870;DHT22;2961;47.702;9.410;2022-09-09T07:23:37;15.00;99.90
5870;DHT22;2961;47.702;9.410;2022-09-09T07:26:08;15.00;99.90
5870;DHT22;2961;47.702;9.410;2022-09-09T07:28:36;15.00;99.90
5870;DHT22;2961;47.702;9.410;2022-09-09T07:31:03;15.00;99.90
5870;DHT22;2961;47.702;9.410;2022-09-09T07:33:31;15.00;99.90
5870;DHT22;2961;47.702;9.410;2022-09-09T07:36:05;15.00;99.90
5870;DHT22;2961;47.702;9.410;2022-09-09T07:38:33;15.00;99.90
5870;DHT22;2961;47.702;9.410;2022-09-09T07:41:04;15.10;99.90
5870;DHT22;2961;47.702;9.410;2022-09-09T07:43:32;15.20;99.90
5870;DHT22;2961;47.702;9.410;2022-09-09T07:46:00;15.30;99.90
5870;DHT22;2961;47.702;9.410;2022-09-09T07:48:28;15.40;99.90
5870;DHT22;2961;47.702;9.410;2022-09-09T07:51:05;15.60;99.90
5870;DHT22;2961;47.702;9.410;2022-09-09T07:53:33;15.70;99.90
5870;DHT22;2961;47.702;9.410;2022-09-09T07:56:06;16.00;99.90
5870;DHT22;2961;47.702;9.410;2022-09-09T07:58:33;16.20;99.90
5870;DHT22;2961;47.702;9.410;2022-09-09T08:01:00;16.40;99.90
5870;DHT22;2961;47.702;9.410;2022-09-09T08:03:27;16.50;99.90
5870;DHT22;2961;47.702;9.410;2022-09-09T08:06:00;16.60;99.90
5870;DHT22;2961;47.702;9.410;2022-09-09T08:08:29;16.60;99.90
5870;DHT22;2961;47.702;9.410;2022-09-09T08:11:02;16.60;99.90
5870;DHT22;2961;47.702;9.410;2022-09-09T08:13:30;16.60;99.90
5870;DHT22;2961;47.702;9.410;2022-09-09T08:16:04;16.70;99.90
5870;DHT22;2961;47.702;9.410;2022-09-09T08:18:32;16.80;99.90
5870;DHT22;2961;47.702;9.410;2022-09-09T08:21:05;16.90;99.90
5870;DHT22;2961;47.702;9.410;2022-09-09T08:23:35;17.20;99.90
5870;DHT22;2961;47.702;9.410;2022-09-09T08:26:07;17.20;99.90
5870;DHT22;2961;47.702;9.410;2022-09-09T08:28:34;17.40;99.90
5870;DHT22;2961;47.702;9.410;2022-09-09T08:31:09;17.50;99.90
5870;DHT22;2961;47.702;9.410;2022-09-09T08:33:36;17.80;99.90
5870;DHT22;2961;47.702;9.410;2022-09-09T08:36:04;18.00;99.90
5870;DHT22;2961;47.702;9.410;2022-09-09T08:38:32;18.40;99.90
5870;DHT22;2961;47.702;9.410;2022-09-09T08:41:11;18.50;99.90
5870;DHT22;2961;47.702;9.410;2022-09-09T08:43:43;18.70;99.90
5870;DHT22;2961;47.702;9.410;2022-09-09T08:46:17;19.10;99.90
5870;DHT22;2961;47.702;9.410;2022-09-09T08:48:52;19.20;99.90
5870;DHT22;2961;47.702;9.410;2022-09-09T08:51:24;19.20;99.90
5870;DHT22;2961;47.702;9.410;2022-09-09T08:53:53;19.30;99.90
5870;DHT22;2961;47.702;9.410;2022-09-09T08:56:24;19.30;99.90
5870;DHT22;2961;47.702;9.410;2022-09-09T08:58:53;19.30;99.90
5870;DHT22;2961;47.702;9.410;2022-09-09T09:01:42;19.30;99.90
5870;DHT22;2961;47.702;9.410;2022-09-09T09:04:27;19.40;99.90
5870;DHT22;2961;47.702;9.410;2022-09-09T09:07:10;19.50;99.90
5870;DHT22;2961;47.702;9.410;2022-09-09T09:09:45;19.60;99.90
5870;DHT22;2961;47.702;9.410;2022-09-09T09:12:19;19.50;99.90
5870;DHT22;2961;47.702;9.410;2022-09-09T09:14:47;19.60;99.90
5870;DHT22;2961;47.702;9.410;2022-09-09T09:17:17;19.70;99.90
5870;DHT22;2961;47.702;9.410;2022-09-09T09:19:46;19.80;99.90
5870;DHT22;2961;47.702;9.410;2022-09-09T09:22:17;19.70;99.90
5870;DHT22;2961;47.702;9.410;2022-09-09T09:24:51;19.80;99.90
5870;DHT22;2961;47.702;9.410;2022-09-09T09:27:27;19.90;99.90
5870;DHT22;2961;47.702;9.410;2022-09-09T09:29:58;19.80;99.90
5870;DHT22;2961;47.702;9.410;2022-09-09T09:32:28;19.70;99.90
5870;DHT22;2961;47.702;9.410;2022-09-09T09:34:58;19.40;99.90
5870;DHT22;2961;47.702;9.410;2022-09-09T09:37:29;19.30;99.90
5870;DHT22;2961;47.702;9.410;2022-09-09T09:40:07;19.10;99.90
5870;DHT22;2961;47.702;9.410;2022-09-09T09:42:36;19.00;99.90
5870;DHT22;2961;47.702;9.410;2022-09-09T09:45:08;19.10;99.90
5870;DHT22;2961;47.702;9.410;2022-09-09T09:47:35;19.00;99.90
5870;DHT22;2961;47.702;9.410;2022-09-09T09:50:02;19.10;99.90
5870;DHT22;2961;47.702;9.410;2022-09-09T09:52:31;19.10;99.90
5870;DHT22;2961;47.702;9.410;2022-09-09T09:55:03;19.00;99.90
5870;DHT22;2961;47.702;9.410;2022-09-09T09:57:33;19.00;99.90
5870;DHT22;2961;47.702;9.410;2022-09-09T10:00:04;19.10;99.90
5870;DHT22;2961;47.702;9.410;2022-09-09T10:02:38;19.10;99.90
5870;DHT22;2961;47.702;9.410;2022-09-09T10:05:13;19.10;99.90
5870;DHT22;2961;47.702;9.410;2022-09-09T10:07:40;18.90;99.90
5870;DHT22;2961;47.702;9.410;2022-09-09T10:10:13;18.90;99.90
5870;DHT22;2961;47.702;9.410;2022-09-09T10:12:52;18.90;99.90
5870;DHT22;2961;47.702;9.410;2022-09-09T10:15:31;18.90;99.90
5870;DHT22;2961;47.702;9.410;2022-09-09T10:18:06;19.10;99.90
5870;DHT22;2961;47.702;9.410;2022-09-09T10:20:45;19.20;99.90
5870;DHT22;2961;47.702;9.410;2022-09-09T10:23:44;19.30;99.90
5870;DHT22;2961;47.702;9.410;2022-09-09T10:26:27;19.30;99.90
5870;DHT22;2961;47.702;9.410;2022-09-09T10:29:19;19.50;99.90
5870;DHT22;2961;47.702;9.410;2022-09-09T10:32:03;19.40;99.90
5870;DHT22;2961;47.702;9.410;2022-09-09T10:34:55;19.20;99.90
5870;DHT22;2961;47.702;9.410;2022-09-09T10:37:37;19.10;99.90
5870;DHT22;2961;47.702;9.410;2022-09-09T10:40:21;19.00;99.90
5870;DHT22;2961;47.702;9.410;2022-09-09T10:42:50;19.00;99.90
5870;DHT22;2961;47.702;9.410;2022-09-09T10:45:18;19.10;99.90
5870;DHT22;2961;47.702;9.410;2022-09-09T10:47:59;19.20;99.90
5870;DHT22;2961;47.702;9.410;2022-09-09T10:50:43;19.30;99.90
5870;DHT22;2961;47.702;9.410;2022-09-09T10:53:16;19.40;99.90
5870;DHT22;2961;47.702;9.410;2022-09-09T10:55:45;19.50;99.90
5870;DHT22;2961;47.702;9.410;2022-09-09T10:58:18;19.60;99.90
5870;DHT22;2961;47.702;9.410;2022-09-09T11:00:48;19.80;99.90
5870;DHT22;2961;47.702;9.410;2022-09-09T11:03:20;19.90;99.90
5870;DHT22;2961;47.702;9.410;2022-09-09T11:05:53;20.10;99.90
5870;DHT22;2961;47.702;9.410;2022-09-09T11:08:24;20.20;99.90
5870;DHT22;2961;47.702;9.410;2022-09-09T11:10:55;20.20;99.90
5870;DHT22;2961;47.702;9.410;2022-09-09T11:13:30;20.40;99.90
5870;DHT22;2961;47.702;9.410;2022-09-09T11:16:03;20.70;99.90
5870;DHT22;2961;47.702;9.410;2022-09-09T11:18:37;20.90;99.90
5870;DHT22;2961;47.702;9.410;2022-09-09T11:21:12;21.10;99.90
5870;DHT22;2961;47.702;9.410;2022-09-09T11:23:45;21.10;99.90
5870;DHT22;2961;47.702;9.410;2022-09-09T11:26:17;21.10;99.90
5870;DHT22;2961;47.702;9.410;2022-09-09T11:28:56;21.00;99.90
5870;DHT22;2961;47.702;9.410;2022-09-09T11:31:43;21.00;99.90
5870;DHT22;2961;47.702;9.410;2022-09-09T11:34:32;20.90;99.90
5870;DHT22;2961;47.702;9.410;2022-09-09T11:37:13;20.70;99.90
5870;DHT22;2961;47.702;9.410;2022-09-09T11:40:09;20.50;99.90
5870;DHT22;2961;47.702;9.410;2022-09-09T11:42:40;20.20;99.90
5870;DHT22;2961;47.702;9.410;2022-09-09T11:45:20;19.80;99.90
5870;DHT22;2961;47.702;9.410;2022-09-09T11:47:53;19.40;99.90
5870;DHT22;2961;47.702;9.410;2022-09-09T11:50:45;19.20;99.90
5870;DHT22;2961;47.702;9.410;2022-09-09T11:53:21;19.20;99.90
5870;DHT22;2961;47.702;9.410;2022-09-09T11:58:36;19.10;99.90
5870;DHT22;2961;47.702;9.410;2022-09-09T12:01:14;19.20;99.90
5870;DHT22;2961;47.702;9.410;2022-09-09T12:03:43;19.30;99.90
5870;DHT22;2961;47.702;9.410;2022-09-09T12:06:15;19.40;99.90
5870;DHT22;2961;47.702;9.410;2022-09-09T12:08:45;19.60;99.90
5870;DHT22;2961;47.702;9.410;2022-09-09T12:11:24;19.70;99.90
5870;DHT22;2961;47.702;9.410;2022-09-09T12:13:53;19.80;99.90
5870;DHT22;2961;47.702;9.410;2022-09-09T12:16:32;19.60;99.90
5870;DHT22;2961;47.702;9.410;2022-09-09T12:19:13;19.40;99.90
5870;DHT22;2961;47.702;9.410;2022-09-09T12:21:46;19.30;99.90
5870;DHT22;2961;47.702;9.410;2022-09-09T12:24:21;19.10;99.90
5870;DHT22;2961;47.702;9.410;2022-09-09T12:26:54;19.10;99.90
5870;DHT22;2961;47.702;9.410;2022-09-09T12:29:28;19.30;99.90
5870;DHT22;2961;47.702;9.410;2022-09-09T12:32:02;19.40;99.90
5870;DHT22;2961;47.702;9.410;2022-09-09T12:34:36;19.50;99.90
5870;DHT22;2961;47.702;9.410;2022-09-09T12:37:14;19.70;99.90
5870;DHT22;2961;47.702;9.410;2022-09-09T12:39:47;19.90;99.90
5870;DHT22;2961;47.702;9.410;2022-09-09T12:42:17;20.10;99.90
5870;DHT22;2961;47.702;9.410;2022-09-09T12:44:51;20.30;99.90
5870;DHT22;2961;47.702;9.410;2022-09-09T12:47:19;20.20;99.90
5870;DHT22;2961;47.702;9.410;2022-09-09T12:49:47;20.30;99.90
5870;DHT22;2961;47.702;9.410;2022-09-09T12:52:21;20.10;99.90
5870;DHT22;2961;47.702;9.410;2022-09-09T12:54:49;20.00;99.90
5870;DHT22;2961;47.702;9.410;2022-09-09T12:57:19;20.00;99.90
5870;DHT22;2961;47.702;9.410;2022-09-09T12:59:46;20.00;99.90
5870;DHT22;2961;47.702;9.410;2022-09-09T13:02:25;20.00;99.90
5870;DHT22;2961;47.702;9.410;2022-09-09T13:04:53;20.00;99.90
5870;DHT22;2961;47.702;9.410;2022-09-09T13:07:22;20.10;99.90
5870;DHT22;2961;47.702;9.410;2022-09-09T13:09:50;20.10;99.90
5870;DHT22;2961;47.702;9.410;2022-09-09T13:12:19;20.20;99.90
5870;DHT22;2961;47.702;9.410;2022-09-09T13:14:50;20.20;99.90
5870;DHT22;2961;47.702;9.410;2022-09-09T13:17:21;20.40;99.90
5870;DHT22;2961;47.702;9.410;2022-09-09T13:19:49;20.70;99.90
5870;DHT22;2961;47.702;9.410;2022-09-09T13:22:23;21.00;99.90
5870;DHT22;2961;47.702;9.410;2022-09-09T13:25:00;21.00;99.90
5870;DHT22;2961;47.702;9.410;2022-09-09T13:27:29;21.20;99.90
5870;DHT22;2961;47.702;9.410;2022-09-09T13:29:56;21.30;99.90
5870;DHT22;2961;47.702;9.410;2022-09-09T13:32:24;21.50;99.90
5870;DHT22;2961;47.702;9.410;2022-09-09T13:34:53;21.50;99.90
5870;DHT22;2961;47.702;9.410;2022-09-09T13:37:23;21.50;99.90
5870;DHT22;2961;47.702;9.410;2022-09-09T13:39:54;21.40;99.90
5870;DHT22;2961;47.702;9.410;2022-09-09T13:42:26;21.40;99.90
5870;DHT22;2961;47.702;9.410;2022-09-09T13:44:53;21.20;99.90
5870;DHT22;2961;47.702;9.410;2022-09-09T13:47:26;20.90;99.90
5870;DHT22;2961;47.702;9.410;2022-09-09T13:49:54;20.70;99.90
5870;DHT22;2961;47.702;9.410;2022-09-09T13:52:22;20.70;99.90
5870;DHT22;2961;47.702;9.410;2022-09-09T13:54:52;20.70;99.90
5870;DHT22;2961;47.702;9.410;2022-09-09T13:57:21;20.70;99.90
5870;DHT22;2961;47.702;9.410;2022-09-09T13:59:48;20.70;99.90
5870;DHT22;2961;47.702;9.410;2022-09-09T14:02:16;20.70;99.90
5870;DHT22;2961;47.702;9.410;2022-09-09T14:04:43;20.70;99.90
5870;DHT22;2961;47.702;9.410;2022-09-09T14:07:11;20.70;99.90
5870;DHT22;2961;47.702;9.410;2022-09-09T14:09:40;20.70;99.90
5870;DHT22;2961;47.702;9.410;2022-09-09T14:12:09;20.60;99.90
5870;DHT22;2961;47.702;9.410;2022-09-09T14:14:37;20.60;99.90
5870;DHT22;2961;47.702;9.410;2022-09-09T14:17:04;20.60;99.90
5870;DHT22;2961;47.702;9.410;2022-09-09T14:19:32;20.60;99.90
5870;DHT22;2961;47.702;9.410;2022-09-09T14:21:58;20.60;99.90
5870;DHT22;2961;47.702;9.410;2022-09-09T14:24:25;20.50;99.90
5870;DHT22;2961;47.702;9.410;2022-09-09T14:26:54;20.40;99.90
5870;DHT22;2961;47.702;9.410;2022-09-09T14:29:21;20.40;99.90
5870;DHT22;2961;47.702;9.410;2022-09-09T14:31:48;20.40;99.90
5870;DHT22;2961;47.702;9.410;2022-09-09T14:34:14;20.40;99.90
5870;DHT22;2961;47.702;9.410;2022-09-09T14:36:41;20.40;99.90
5870;DHT22;2961;47.702;9.410;2022-09-09T14:39:10;20.50;99.90
5870;DHT22;2961;47.702;9.410;2022-09-09T14:41:37;20.50;99.90
5870;DHT22;2961;47.702;9.410;2022-09-09T14:44:05;20.40;99.90
5870;DHT22;2961;47.702;9.410;2022-09-09T14:46:32;20.50;99.90
5870;DHT22;2961;47.702;9.410;2022-09-09T14:48:59;20.50;99.90
5870;DHT22;2961;47.702;9.410;2022-09-09T14:51:26;20.50;99.90
5870;DHT22;2961;47.702;9.410;2022-09-09T14:53:54;20.50;99.90
5870;DHT22;2961;47.702;9.410;2022-09-09T14:56:24;20.40;99.90
5870;DHT22;2961;47.702;9.410;2022-09-09T14:58:53;20.40;99.90
5870;DHT22;2961;47.702;9.410;2022-09-09T15:01:23;20.40;99.90
5870;DHT22;2961;47.702;9.410;2022-09-09T15:03:55;20.40;99.90
5870;DHT22;2961;47.702;9.410;2022-09-09T15:06:24;20.30;99.90
5870;DHT22;2961;47.702;9.410;2022-09-09T15:08:52;20.10;99.90
5870;DHT22;2961;47.702;9.410;2022-09-09T15:11:20;19.90;99.90
5870;DHT22;2961;47.702;9.410;2022-09-09T15:13:51;19.90;99.90
5870;DHT22;2961;47.702;9.410;2022-09-09T15:16:19;19.90;99.90
5870;DHT22;2961;47.702;9.410;2022-09-09T15:18:51;19.80;99.90
5870;DHT22;2961;47.702;9.410;2022-09-09T15:21:21;19.80;99.90
5870;DHT22;2961;47.702;9.410;2022-09-09T15:23:48;19.70;99.90
5870;DHT22;2961;47.702;9.410;2022-09-09T15:26:17;19.50;99.90
5870;DHT22;2961;47.702;9.410;2022-09-09T15:28:45;19.40;99.90
5870;DHT22;2961;47.702;9.410;2022-09-09T15:31:17;19.30;99.90
5870;DHT22;2961;47.702;9.410;2022-09-09T15:33:48;19.30;99.90
5870;DHT22;2961;47.702;9.410;2022-09-09T15:36:16;19.40;99.90
5870;DHT22;2961;47.702;9.410;2022-09-09T15:38:44;19.60;99.90
5870;DHT22;2961;47.702;9.410;2022-09-09T15:41:11;19.80;99.90
5870;DHT22;2961;47.702;9.410;2022-09-09T15:43:38;20.00;99.90
5870;DHT22;2961;47.702;9.410;2022-09-09T15:46:23;20.10;99.90
5870;DHT22;2961;47.702;9.410;2022-09-09T15:48:53;20.10;99.90
5870;DHT22;2961;47.702;9.410;2022-09-09T15:51:21;20.00;99.90
5870;DHT22;2961;47.702;9.410;2022-09-09T15:53:48;20.00;99.90
5870;DHT22;2961;47.702;9.410;2022-09-09T15:56:15;19.80;99.90
5870;DHT22;2961;47.702;9.410;2022-09-09T15:58:42;19.70;99.90
5870;DHT22;2961;47.702;9.410;2022-09-09T16:01:10;19.70;99.90
5870;DHT22;2961;47.702;9.410;2022-09-09T16:03:38;19.70;99.90
5870;DHT22;2961;47.702;9.410;2022-09-09T16:06:07;19.70;99.90
5870;DHT22;2961;47.702;9.410;2022-09-09T16:08:35;19.50;99.90
5870;DHT22;2961;47.702;9.410;2022-09-09T16:11:06;19.50;99.90
5870;DHT22;2961;47.702;9.410;2022-09-09T16:13:35;19.40;99.90
5870;DHT22;2961;47.702;9.410;2022-09-09T16:16:02;19.40;99.90
5870;DHT22;2961;47.702;9.410;2022-09-09T16:18:34;19.30;99.90
5870;DHT22;2961;47.702;9.410;2022-09-09T16:21:02;19.20;99.90
5870;DHT22;2961;47.702;9.410;2022-09-09T16:23:32;19.20;99.90
5870;DHT22;2961;47.702;9.410;2022-09-09T16:25:59;19.10;99.90
5870;DHT22;2961;47.702;9.410;2022-09-09T16:28:27;19.00;99.90
5870;DHT22;2961;47.702;9.410;2022-09-09T16:30:54;18.90;99.90